Time;durP1;ratioP1;P1;durP2;ratioP2;P2;SDS_P1;SDS_P2;PMS_P1;PMS_P2;Temp;Humidity;BMP_temperature;BMP_pressure;BME280_temperature;BME280_humidity;BME280_pressure;Samples;Min_cycle;Max_cycle;Signal;HPM_P1;HPM_P2
2021/05/11 00:00:28;;;;;;;6.78;3.53;;;15.80;99.90;;;;;;4930092;29;20028;-73
2021/05/11 00:02:54;;;;;;;6.28;3.47;;;15.70;99.90;;;;;;4930330;29;20445;-72
2021/05/11 00:05:19;;;;;;;5.78;3.92;;;15.70;99.90;;;;;;4944703;29;20043;-71
2021/05/11 00:07:45;;;;;;;4.60;3.03;;;15.70;99.90;;;;;;4931763;29;20028;-71
2021/05/11 00:10:11;;;;;;;7.25;3.63;;;15.70;99.90;;;;;;4930043;29;20032;-72
2021/05/11 00:12:37;;;;;;;6.15;3.90;;;15.70;99.90;;;;;;4928773;29;20043;-71
2021/05/11 00:15:04;;;;;;;6.82;3.38;;;15.70;99.90;;;;;;4929999;29;20036;-71
2021/05/11 00:17:29;;;;;;;4.85;3.28;;;15.70;99.90;;;;;;4930363;29;20099;-72
2021/05/11 00:19:55;;;;;;;7.35;3.60;;;15.60;99.90;;;;;;4928709;29;20036;-72
2021/05/11 00:22:21;;;;;;;13.25;4.47;;;15.60;99.90;;;;;;4928027;29;20036;-71
2021/05/11 00:24:46;;;;;;;9.48;3.95;;;15.60;99.90;;;;;;4929985;29;20031;-72
2021/05/11 00:27:12;;;;;;;8.45;4.50;;;15.60;99.90;;;;;;4928367;29;20384;-72
2021/05/11 00:29:37;;;;;;;7.45;4.60;;;15.60;99.90;;;;;;4929430;29;20040;-71
2021/05/11 00:32:03;;;;;;;7.30;3.92;;;15.60;99.90;;;;;;4928157;29;20039;-72
2021/05/11 00:34:29;;;;;;;6.63;3.83;;;15.60;99.90;;;;;;4929717;29;20064;-72
2021/05/11 00:36:54;;;;;;;7.18;3.90;;;15.60;99.90;;;;;;4929276;29;20072;-70
2021/05/11 00:39:20;;;;;;;8.77;4.65;;;15.50;99.90;;;;;;4929466;29;20036;-70
2021/05/11 00:41:46;;;;;;;7.43;4.40;;;15.50;99.90;;;;;;4929382;29;20480;-70
2021/05/11 00:44:22;;;;;;;6.18;3.78;;;15.50;99.90;;;;;;4929196;29;20029;-71
2021/05/11 00:46:55;;;;;;;7.03;4.32;;;15.50;99.90;;;;;;4929609;29;20032;-70
2021/05/11 00:49:22;;;;;;;7.88;4.15;;;15.50;99.90;;;;;;4929157;29;20079;-70
2021/05/11 00:51:48;;;;;;;10.50;5.32;;;15.60;99.90;;;;;;4928903;29;20024;-71
2021/05/11 00:54:15;;;;;;;6.63;4.43;;;15.50;99.90;;;;;;4929331;29;20036;-71
2021/05/11 00:56:41;;;;;;;7.63;4.22;;;15.50;99.90;;;;;;4928958;29;20050;-70
2021/05/11 00:59:10;;;;;;;9.02;5.03;;;15.50;99.90;;;;;;4929276;29;20137;-70
2021/05/11 01:01:35;;;;;;;5.85;4.22;;;15.40;99.90;;;;;;4929272;29;20048;-70
2021/05/11 01:04:01;;;;;;;8.15;4.47;;;15.40;99.90;;;;;;4928726;29;20091;-71
2021/05/11 01:06:27;;;;;;;6.65;4.25;;;15.40;99.90;;;;;;4927898;29;20032;-72
2021/05/11 01:08:52;;;;;;;8.02;4.18;;;15.40;99.90;;;;;;4928754;29;20047;-71
2021/05/11 01:11:18;;;;;;;11.50;4.78;;;15.30;99.90;;;;;;4928704;29;20032;-71
2021/05/11 01:13:43;;;;;;;7.60;4.68;;;15.30;99.90;;;;;;4928968;29;20126;-70
2021/05/11 01:16:10;;;;;;;6.57;4.55;;;15.30;99.90;;;;;;4928721;29;20036;-70
2021/05/11 01:18:36;;;;;;;7.85;4.07;;;15.30;99.90;;;;;;4928908;29;20027;-70
2021/05/11 01:21:21;;;;;;;7.07;4.10;;;15.30;99.90;;;;;;4927493;29;20044;-72
2021/05/11 01:24:02;;;;;;;8.27;4.10;;;15.30;99.90;;;;;;4928262;29;20035;-71
2021/05/11 01:27:24;;;;;;;10.15;5.32;;;15.30;99.90;;;;;;4927694;29;20511;-73
2021/05/11 01:49:16;;;;;;;10.80;5.50;;;15.30;99.90;;;;;;4928569;29;20039;-72
2021/05/11 01:54:43;;;;;;;11.07;5.85;;;15.30;99.90;;;;;;4926075;29;20107;-71
2021/05/11 02:24:24;;;;;;;11.02;6.25;;;15.40;99.90;;;;;;4927669;29;20044;-72
2021/05/11 02:26:49;;;;;;;8.45;5.03;;;15.40;99.90;;;;;;4927776;29;20931;-71
2021/05/11 02:29:15;;;;;;;7.75;4.53;;;15.40;99.90;;;;;;4927879;29;20029;-72
2021/05/11 02:31:40;;;;;;;8.32;4.85;;;15.40;99.90;;;;;;4927453;29;20036;-72
2021/05/11 02:34:06;;;;;;;9.63;4.90;;;15.30;99.90;;;;;;4927515;29;20060;-72
2021/05/11 02:36:32;;;;;;;9.30;5.43;;;15.40;99.90;;;;;;4928112;29;20043;-72
2021/05/11 02:38:57;;;;;;;10.40;5.57;;;15.20;99.90;;;;;;4926454;29;20031;-70
2021/05/11 02:41:23;;;;;;;7.53;4.60;;;15.30;99.90;;;;;;4927800;29;20070;-72
2021/05/11 02:43:49;;;;;;;7.07;4.68;;;15.40;99.90;;;;;;4928001;29;20028;-72
2021/05/11 02:46:15;;;;;;;8.63;4.15;;;15.30;99.90;;;;;;4927616;29;20039;-72
2021/05/11 02:48:40;;;;;;;10.85;5.50;;;15.30;99.90;;;;;;4927616;29;20047;-70
2021/05/11 02:51:06;;;;;;;9.93;6.13;;;15.40;99.90;;;;;;4927862;29;20047;-72
2021/05/11 02:53:31;;;;;;;8.85;4.45;;;15.30;99.90;;;;;;4927547;29;20377;-72
2021/05/11 02:55:57;;;;;;;8.10;4.90;;;15.30;99.90;;;;;;4931387;29;20036;-74
2021/05/11 02:58:23;;;;;;;11.05;5.00;;;15.20;99.90;;;;;;4931476;29;20563;-74
2021/05/11 03:00:49;;;;;;;8.77;5.03;;;15.20;99.90;;;;;;4929687;29;20127;-73
2021/05/11 03:03:14;;;;;;;9.13;5.15;;;15.20;99.90;;;;;;4929925;29;20064;-74
2021/05/11 03:05:40;;;;;;;7.78;4.00;;;15.10;99.90;;;;;;4931244;29;20032;-72
2021/05/11 03:08:06;;;;;;;13.43;4.45;;;15.10;99.90;;;;;;4931029;29;20103;-72
2021/05/11 03:10:31;;;;;;;9.18;3.58;;;15.00;99.90;;;;;;4931284;29;20537;-76
2021/05/11 03:12:57;;;;;;;6.13;2.50;;;15.00;99.90;;;;;;4931225;29;20091;-74
2021/05/11 03:15:22;;;;;;;4.03;2.33;;;14.90;99.90;;;;;;4929628;29;20072;-76
2021/05/11 03:17:48;;;;;;;4.00;2.15;;;14.80;99.90;;;;;;4931008;29;20028;-74
2021/05/11 03:20:14;;;;;;;3.63;2.42;;;14.80;99.90;;;;;;4929773;29;20393;-74
2021/05/11 03:22:40;;;;;;;2.10;1.70;;;14.70;99.90;;;;;;4930534;29;20040;-75
2021/05/11 03:25:06;;;;;;;5.15;2.72;;;14.60;99.90;;;;;;4931073;29;20028;-73
2021/05/11 03:27:32;;;;;;;4.93;2.47;;;14.60;99.90;;;;;;4930748;29;20068;-74
2021/05/11 03:29:57;;;;;;;4.13;2.15;;;14.60;99.90;;;;;;4930983;29;20027;-73
2021/05/11 03:32:23;;;;;;;3.38;1.92;;;14.60;99.90;;;;;;4930947;29;20028;-75
2021/05/11 03:34:49;;;;;;;3.50;2.30;;;14.60;99.90;;;;;;4930409;29;20048;-72
2021/05/11 03:37:15;;;;;;;4.18;2.33;;;14.50;99.90;;;;;;4930687;29;20036;-74
2021/05/11 03:39:41;;;;;;;4.57;2.38;;;14.50;99.90;;;;;;4930623;29;20123;-75
2021/05/11 03:42:24;;;;;;;4.85;2.42;;;14.40;99.90;;;;;;4928750;29;20496;-74
2021/05/11 03:44:53;;;;;;;3.97;2.50;;;14.40;99.90;;;;;;4929322;29;20080;-74
2021/05/11 03:47:21;;;;;;;8.93;2.83;;;14.30;99.90;;;;;;4929286;29;20031;-73
2021/05/11 03:49:46;;;;;;;2.92;2.03;;;14.30;99.90;;;;;;4929013;29;20121;-74
2021/05/11 03:52:13;;;;;;;6.38;2.90;;;14.20;99.90;;;;;;4928747;29;20052;-74
2021/05/11 03:54:39;;;;;;;2.20;1.88;;;14.20;99.90;;;;;;4930044;29;20025;-76
2021/05/11 03:57:05;;;;;;;5.07;2.42;;;14.20;99.90;;;;;;4928995;29;20028;-75
2021/05/11 03:59:31;;;;;;;7.35;2.75;;;14.10;99.90;;;;;;4928986;29;20032;-76
2021/05/11 04:01:57;;;;;;;3.67;1.92;;;14.20;99.90;;;;;;4929971;29;20060;-75
2021/05/11 04:04:24;;;;;;;4.38;2.97;;;14.20;99.90;;;;;;4929996;29;20374;-75
2021/05/11 04:06:50;;;;;;;6.35;2.40;;;14.10;99.90;;;;;;4929076;29;20025;-76
2021/05/11 04:16:37;;;;;;;6.05;3.20;;;14.30;99.90;;;;;;4929879;29;20055;-79
2021/05/11 04:19:03;;;;;;;3.25;2.33;;;14.20;99.90;;;;;;4929015;29;20039;-76
2021/05/11 04:21:29;;;;;;;4.40;2.67;;;14.10;99.90;;;;;;4928823;29;20069;-76
2021/05/11 04:23:55;;;;;;;6.88;2.97;;;14.10;99.90;;;;;;4929431;29;20028;-75
2021/05/11 04:26:22;;;;;;;7.22;3.65;;;14.10;99.90;;;;;;4930096;29;20603;-75
2021/05/11 04:28:48;;;;;;;5.05;2.60;;;14.10;99.90;;;;;;4928560;29;20028;-76
2021/05/11 04:31:15;;;;;;;5.80;3.60;;;14.10;99.90;;;;;;4929411;29;20039;-75
2021/05/11 04:33:41;;;;;;;3.90;2.40;;;14.10;99.90;;;;;;4929052;29;20032;-76
2021/05/11 04:36:07;;;;;;;7.63;3.53;;;14.10;99.90;;;;;;4930239;29;20039;-75
2021/05/11 04:38:33;;;;;;;3.78;2.65;;;14.10;99.90;;;;;;4929386;29;20032;-74
2021/05/11 04:40:59;;;;;;;6.68;3.80;;;14.10;99.90;;;;;;4928373;29;20597;-74
2021/05/11 04:43:27;;;;;;;6.68;3.58;;;14.20;99.90;;;;;;4929425;29;20103;-76
2021/05/11 04:46:06;;;;;;;5.82;2.65;;;14.20;99.90;;;;;;4929152;29;20032;-75
2021/05/11 04:48:32;;;;;;;5.32;2.63;;;14.20;99.90;;;;;;4928283;29;20043;-75
2021/05/11 04:50:58;;;;;;;3.75;2.22;;;14.20;99.90;;;;;;4929462;29;20036;-76
2021/05/11 04:53:24;;;;;;;5.30;2.88;;;14.20;99.90;;;;;;4927433;29;20088;-75
2021/05/11 04:55:50;;;;;;;7.10;2.95;;;14.20;99.90;;;;;;4927958;29;20028;-74
2021/05/11 04:58:15;;;;;;;4.32;3.08;;;14.20;99.90;;;;;;4928873;29;20024;-75
2021/05/11 05:00:41;;;;;;;7.35;3.78;;;14.20;99.90;;;;;;4927776;29;20124;-75
2021/05/11 05:03:10;;;;;;;6.45;3.30;;;14.20;99.90;;;;;;4929152;29;20043;-77
2021/05/11 05:05:36;;;;;;;10.63;4.38;;;14.20;99.90;;;;;;4928595;29;20437;-74
2021/05/11 05:08:02;;;;;;;7.15;3.88;;;14.20;99.90;;;;;;4927723;29;20091;-73
2021/05/11 05:10:27;;;;;;;7.57;3.50;;;14.20;99.90;;;;;;4927914;29;20032;-74
2021/05/11 05:12:53;;;;;;;7.85;3.63;;;14.20;99.90;;;;;;4928737;29;20067;-74
2021/05/11 05:15:18;;;;;;;6.82;3.63;;;14.30;99.90;;;;;;4928867;29;20034;-75
2021/05/11 05:17:44;;;;;;;5.97;3.08;;;14.20;99.90;;;;;;4928732;29;20024;-75
2021/05/11 05:20:10;;;;;;;9.20;3.53;;;14.30;99.90;;;;;;4927250;29;20028;-72
2021/05/11 05:22:36;;;;;;;6.60;3.50;;;14.30;99.90;;;;;;4928429;29;20040;-74
2021/05/11 05:25:12;;;;;;;6.43;3.05;;;14.30;99.90;;;;;;4929135;29;20043;-74
2021/05/11 05:27:47;;;;;;;6.93;2.88;;;14.30;99.90;;;;;;4929462;29;20107;-75
2021/05/11 05:30:13;;;;;;;8.07;3.40;;;14.30;99.90;;;;;;4927821;29;20028;-76
2021/05/11 05:32:39;;;;;;;4.18;2.42;;;14.30;99.90;;;;;;4928616;29;20024;-75
2021/05/11 05:35:05;;;;;;;4.65;2.40;;;14.30;99.90;;;;;;4928538;29;20056;-79
2021/05/11 05:37:31;;;;;;;7.03;2.90;;;14.30;99.90;;;;;;4938815;29;20028;-75
2021/05/11 05:39:59;;;;;;;6.28;3.22;;;14.30;99.90;;;;;;4946309;29;20070;-74
2021/05/11 05:42:25;;;;;;;8.80;4.35;;;14.30;99.90;;;;;;4943464;29;20047;-73
2021/05/11 05:44:50;;;;;;;6.05;3.47;;;14.20;99.90;;;;;;4939141;29;20060;-76
2021/05/11 05:47:17;;;;;;;4.70;3.17;;;14.20;99.90;;;;;;4932119;29;20032;-73
2021/05/11 05:49:46;;;;;;;6.60;2.83;;;14.20;99.90;;;;;;4939999;29;20020;-74
2021/05/11 05:52:22;;;;;;;6.45;3.88;;;14.20;99.90;;;;;;4928096;29;20048;-74
2021/05/11 05:54:48;;;;;;;4.82;3.42;;;14.10;99.90;;;;;;4928236;29;20462;-74
2021/05/11 05:57:15;;;;;;;5.15;2.90;;;14.20;99.90;;;;;;4928320;29;20028;-76
2021/05/11 05:59:41;;;;;;;6.47;3.40;;;14.20;99.90;;;;;;4928351;29;20028;-73
2021/05/11 06:02:16;;;;;;;4.47;2.95;;;14.10;99.90;;;;;;4934012;29;20064;-75
2021/05/11 06:04:43;;;;;;;5.45;3.08;;;14.10;99.90;;;;;;4935658;29;20043;-74
2021/05/11 06:07:09;;;;;;;4.97;2.60;;;14.20;99.90;;;;;;4926907;29;20469;-75
2021/05/11 06:09:35;;;;;;;4.10;2.80;;;14.20;99.90;;;;;;4926686;29;20042;-73
2021/05/11 06:12:08;;;;;;;4.45;3.10;;;14.20;99.90;;;;;;4928181;29;20028;-73
2021/05/11 06:17:17;;;;;;;8.57;4.15;;;14.10;99.90;;;;;;4928164;29;20043;-75
2021/05/11 06:19:45;;;;;;;5.80;3.97;;;14.20;99.90;;;;;;4926670;29;20037;-75
2021/05/11 06:22:12;;;;;;;6.85;3.92;;;14.10;99.90;;;;;;4942489;29;20092;-72
2021/05/11 06:24:38;;;;;;;9.05;4.22;;;14.10;99.90;;;;;;4927912;29;20031;-73
2021/05/11 06:27:04;;;;;;;8.05;4.70;;;14.10;99.90;;;;;;4927870;29;20028;-74
2021/05/11 06:29:33;;;;;;;7.72;4.05;;;14.10;99.90;;;;;;4930165;29;20055;-74
2021/05/11 06:54:13;;;;;;;6.57;4.38;;;14.10;99.90;;;;;;4931417;29;20127;-75
2021/05/11 06:56:43;;;;;;;8.80;3.70;;;14.20;99.90;;;;;;4930986;29;20035;-74
2021/05/11 06:59:11;;;;;;;5.30;3.58;;;14.10;99.90;;;;;;4931020;29;20039;-74
2021/05/11 07:01:37;;;;;;;4.72;2.47;;;14.10;99.90;;;;;;4931245;29;20044;-75
2021/05/11 07:04:02;;;;;;;7.63;3.40;;;14.20;99.90;;;;;;4931037;29;20036;-75
2021/05/11 07:06:28;;;;;;;9.35;4.15;;;14.20;99.90;;;;;;4913995;29;20032;-76
2021/05/11 07:09:07;;;;;;;6.50;4.25;;;14.10;99.90;;;;;;4904547;29;20036;-73
2021/05/11 07:14:02;;;;;;;8.90;4.10;;;14.20;99.90;;;;;;4931291;29;20473;-74
2021/05/11 07:16:27;;;;;;;7.20;3.50;;;14.20;99.90;;;;;;4931087;29;20028;-75
2021/05/11 07:18:53;;;;;;;6.55;3.22;;;14.20;99.90;;;;;;4930860;29;20035;-74
2021/05/11 07:21:19;;;;;;;5.63;2.90;;;14.10;99.90;;;;;;4913750;29;20044;-75
2021/05/11 07:23:44;;;;;;;6.50;3.33;;;14.10;99.90;;;;;;4930498;29;20032;-76
2021/05/11 07:26:26;;;;;;;2.65;1.77;;;14.10;99.90;;;;;;4930722;29;20030;-75
2021/05/11 07:31:40;;;;;;;3.55;2.30;;;14.20;99.90;;;;;;4930676;29;20039;-76
2021/05/11 07:34:09;;;;;;;3.35;2.30;;;14.20;99.90;;;;;;4930910;29;20457;-75
2021/05/11 07:36:35;;;;;;;3.30;2.15;;;14.20;99.90;;;;;;4930303;29;20036;-76
2021/05/11 07:39:00;;;;;;;2.60;1.80;;;14.20;99.90;;;;;;4929567;29;20025;-74
2021/05/11 07:41:26;;;;;;;3.08;1.58;;;14.20;99.90;;;;;;4930812;29;20108;-75
2021/05/11 07:43:55;;;;;;;3.92;1.73;;;14.20;99.90;;;;;;4930644;29;20028;-75
2021/05/11 08:04:58;;;;;;;2.22;1.48;;;14.00;99.90;;;;;;4914597;29;20048;-77
2021/05/11 08:15:29;;;;;;;3.00;2.28;;;13.90;99.90;;;;;;4910965;29;20048;-76
2021/05/11 08:28:41;;;;;;;13.82;1.55;;;13.80;99.90;;;;;;4911023;29;20039;-74
2021/05/11 08:31:08;;;;;;;1.52;1.20;;;13.80;99.90;;;;;;4918913;29;20028;-75
2021/05/11 08:33:34;;;;;;;2.97;1.30;;;13.80;99.90;;;;;;4917091;29;20409;-76
2021/05/11 08:36:00;;;;;;;6.82;1.50;;;13.70;99.90;;;;;;4909320;29;20037;-74
2021/05/11 08:38:25;;;;;;;1.85;1.33;;;13.60;99.90;;;;;;4920708;29;20039;-74
2021/05/11 08:40:51;;;;;;;3.63;1.90;;;13.60;99.90;;;;;;4927137;29;20032;-74
2021/05/11 08:43:45;;;;;;;2.17;1.42;;;13.60;99.90;;;;;;4913785;29;20036;-73
2021/05/11 08:46:13;;;;;;;3.05;1.70;;;13.60;99.90;;;;;;4906509;29;20072;-76
2021/05/11 08:48:39;;;;;;;5.18;1.77;;;13.70;99.90;;;;;;4908739;29;20032;-73
2021/05/11 08:51:20;;;;;;;2.10;1.23;;;13.70;99.90;;;;;;4909981;29;20040;-73
2021/05/11 09:27:03;;;;;;;1.55;0.88;;;14.30;99.90;;;;;;4916896;29;20064;-73
2021/05/11 09:33:00;;;;;;;3.70;1.70;;;14.40;99.90;;;;;;4920498;29;20043;-74
2021/05/11 09:57:56;;;;;;;2.70;1.48;;;14.10;99.90;;;;;;4928515;29;20047;-74
2021/05/11 10:46:58;;;;;;;2.15;1.00;;;14.70;99.90;;;;;;4909132;29;20043;-76
2021/05/11 10:49:28;;;;;;;1.58;1.00;;;14.60;99.90;;;;;;4907355;29;20056;-76
2021/05/11 10:52:13;;;;;;;4.47;1.48;;;14.60;99.90;;;;;;4907554;29;20033;-75
2021/05/11 10:55:11;;;;;;;3.28;1.70;;;14.70;99.90;;;;;;4908552;29;20028;-76
2021/05/11 10:57:56;;;;;;;2.00;1.20;;;14.70;99.90;;;;;;4909051;29;20035;-76
2021/05/11 11:00:25;;;;;;;1.90;1.33;;;14.70;99.90;;;;;;4908872;29;20035;-78
2021/05/11 11:03:16;;;;;;;3.25;1.50;;;14.70;99.90;;;;;;4907040;29;20048;-77
2021/05/11 11:06:00;;;;;;;2.30;1.58;;;14.80;99.90;;;;;;4907499;29;20040;-75
2021/05/11 11:08:39;;;;;;;2.40;1.40;;;15.00;99.90;;;;;;4923072;29;20044;-74
2021/05/11 11:11:12;;;;;;;2.50;0.93;;;15.10;99.90;;;;;;4907512;29;20629;-75
2021/05/11 11:13:40;;;;;;;2.28;1.08;;;15.10;99.90;;;;;;4908889;29;20041;-75
2021/05/11 11:16:07;;;;;;;2.78;1.02;;;15.20;99.90;;;;;;4911433;29;20039;-76
2021/05/11 11:18:33;;;;;;;1.60;1.23;;;15.30;99.90;;;;;;4926857;29;20040;-75
2021/05/11 11:23:44;;;;;;;9.55;1.58;;;15.30;99.90;;;;;;4910673;29;20044;-75
2021/05/11 11:26:13;;;;;;;1.23;1.00;;;15.30;99.90;;;;;;4912255;29;20036;-77
2021/05/11 11:28:39;;;;;;;1.80;1.10;;;15.30;99.90;;;;;;4912044;29;20036;-76
2021/05/11 11:31:25;;;;;;;1.42;1.00;;;15.30;99.90;;;;;;4919673;29;20385;-75
2021/05/11 11:33:51;;;;;;;1.00;0.70;;;15.20;99.90;;;;;;4931723;29;20032;-76
2021/05/11 11:36:31;;;;;;;2.40;1.02;;;15.10;99.90;;;;;;4929084;29;20095;-74
2021/05/11 11:38:58;;;;;;;2.47;0.90;;;15.10;99.90;;;;;;4929384;29;20060;-75
2021/05/11 11:41:25;;;;;;;0.82;0.80;;;15.00;99.90;;;;;;4929195;29;20115;-74
2021/05/11 11:43:51;;;;;;;0.93;0.60;;;15.00;99.90;;;;;;4929394;29;20032;-74
2021/05/11 11:46:26;;;;;;;0.93;0.65;;;15.00;99.90;;;;;;4930379;29;20060;-74
2021/05/11 11:49:08;;;;;;;2.95;1.27;;;15.00;99.90;;;;;;4928744;29;20028;-76
2021/05/11 11:51:36;;;;;;;1.55;1.05;;;14.90;99.90;;;;;;4930211;29;20544;-74
2021/05/11 11:54:36;;;;;;;5.88;1.10;;;14.90;99.90;;;;;;4929347;29;20059;-76
2021/05/11 11:59:33;;;;;;;2.63;1.00;;;14.90;99.90;;;;;;4929983;29;20043;-74
2021/05/11 12:02:04;;;;;;;5.80;1.00;;;14.90;99.90;;;;;;4930993;29;20051;-74
2021/05/11 12:04:31;;;;;;;2.70;1.08;;;15.00;99.90;;;;;;4930260;29;20473;-74
2021/05/11 12:07:05;;;;;;;4.45;1.23;;;15.00;99.90;;;;;;4929532;29;20425;-75
2021/05/11 12:09:31;;;;;;;2.25;1.40;;;15.10;99.90;;;;;;4928926;29;20080;-74
2021/05/11 12:12:00;;;;;;;3.03;1.45;;;15.10;99.90;;;;;;4929814;29;20040;-75
2021/05/11 12:14:26;;;;;;;2.08;1.27;;;15.10;99.90;;;;;;4930321;29;20028;-74
2021/05/11 12:16:52;;;;;;;4.10;1.35;;;15.10;99.90;;;;;;4929762;29;20036;-76
2021/05/11 12:19:23;;;;;;;1.88;0.95;;;15.20;99.90;;;;;;4929566;29;20485;-74
2021/05/11 12:21:50;;;;;;;0.98;0.88;;;15.40;99.90;;;;;;4929958;29;20048;-74
2021/05/11 12:24:15;;;;;;;3.75;1.00;;;15.30;99.90;;;;;;4929843;29;20067;-74
2021/05/11 12:26:42;;;;;;;3.60;1.20;;;15.20;99.90;;;;;;4928764;29;20020;-76
2021/05/11 12:29:11;;;;;;;1.73;0.80;;;15.30;99.90;;;;;;4928774;29;20042;-75
2021/05/11 12:31:48;;;;;;;2.80;0.93;;;15.30;99.90;;;;;;4944281;29;20028;-75
2021/05/11 12:34:16;;;;;;;0.70;0.57;;;15.40;99.90;;;;;;4929553;29;20028;-73
2021/05/11 12:36:49;;;;;;;3.33;0.98;;;15.40;99.90;;;;;;4929781;29;20032;-74
2021/05/11 12:39:18;;;;;;;3.00;1.08;;;15.40;99.90;;;;;;4929370;29;20496;-73
2021/05/11 12:41:44;;;;;;;3.97;0.95;;;15.40;99.90;;;;;;4929341;29;20059;-75
2021/05/11 12:44:27;;;;;;;0.98;0.63;;;15.40;99.90;;;;;;4928264;29;20091;-74
2021/05/11 12:47:00;;;;;;;1.30;0.75;;;15.40;99.90;;;;;;4929104;29;20020;-73
2021/05/11 12:49:26;;;;;;;1.27;1.02;;;15.30;99.90;;;;;;4927885;29;20024;-73
2021/05/11 12:51:54;;;;;;;0.80;0.70;;;15.30;99.90;;;;;;4929529;29;20484;-73
2021/05/11 12:54:42;;;;;;;2.17;1.10;;;15.30;99.90;;;;;;4929093;29;20035;-74
2021/05/11 12:57:14;;;;;;;2.80;0.90;;;15.20;99.90;;;;;;4929814;29;20377;-72
2021/05/11 13:02:43;;;;;;;2.55;0.82;;;15.20;99.90;;;;;;4928736;29;20055;-73
2021/05/11 13:15:07;;;;;;;2.25;1.10;;;15.00;99.90;;;;;;4928493;29;20557;-74
2021/05/11 13:17:08;;;;;;;8.55;1.20;;;15.00;99.90;;;;;;4912088;29;20123;-74
2021/05/11 13:19:56;;;;;;;;;;;15.00;99.90;;;;;;4923287;29;20111;-73
2021/05/11 13:22:35;;;;;;;2.00;1.13;;;15.10;99.90;;;;;;4926315;29;20062;-73
2021/05/11 13:25:11;;;;;;;5.63;1.73;;;15.10;99.90;;;;;;4929708;29;20032;-74
2021/05/11 13:35:14;;;;;;;3.22;1.50;;;15.40;99.90;;;;;;4909370;29;20059;-74
2021/05/11 13:37:39;;;;;;;3.85;1.40;;;15.40;99.90;;;;;;4908450;29;20032;-73
2021/05/11 13:40:07;;;;;;;2.20;1.23;;;15.30;99.90;;;;;;4908234;29;20057;-73
2021/05/11 13:42:33;;;;;;;3.30;1.40;;;15.20;99.90;;;;;;4919351;29;20064;-74
2021/05/11 13:44:58;;;;;;;4.20;1.20;;;15.10;99.90;;;;;;4920918;29;20029;-72
2021/05/11 13:47:24;;;;;;;1.00;0.90;;;15.10;99.90;;;;;;4909242;29;20093;-72
2021/05/11 13:49:56;;;;;;;4.78;1.52;;;15.00;99.90;;;;;;4915093;29;20059;-72
2021/05/11 13:52:22;;;;;;;3.60;1.13;;;15.00;99.90;;;;;;4936882;29;20060;-71
2021/05/11 13:54:52;;;;;;;2.28;1.35;;;14.90;99.90;;;;;;4908353;29;20029;-72
2021/05/11 14:01:28;;;;;;;2.85;1.45;;;14.90;99.90;;;;;;4907880;29;20040;-73
2021/05/11 14:02:55;;;;;;;5.80;1.58;;;14.90;99.90;;;;;;4909293;29;20043;-71
2021/05/11 14:05:21;;;;;;;1.77;1.15;;;14.90;99.90;;;;;;4907921;29;20116;-72
2021/05/11 14:07:47;;;;;;;1.80;1.30;;;14.90;99.90;;;;;;4909370;29;20029;-73
2021/05/11 14:10:13;;;;;;;4.57;1.40;;;14.80;99.90;;;;;;4909041;29;20037;-72
2021/05/11 14:12:39;;;;;;;2.65;1.88;;;14.90;99.90;;;;;;4909601;29;20092;-71
2021/05/11 14:15:09;;;;;;;3.15;1.17;;;14.80;99.90;;;;;;4909727;29;20029;-72
2021/05/11 14:17:34;;;;;;;2.67;1.60;;;14.80;99.90;;;;;;4909149;29;20056;-73
2021/05/11 14:20:00;;;;;;;1.80;1.17;;;14.70;99.90;;;;;;4909411;29;20084;-73
2021/05/11 14:22:26;;;;;;;3.20;2.13;;;14.70;99.90;;;;;;4908920;29;20044;-73
2021/05/11 14:24:52;;;;;;;4.45;2.05;;;14.60;99.90;;;;;;4909039;29;20035;-70
2021/05/11 14:27:18;;;;;;;4.80;1.77;;;14.60;99.90;;;;;;4909063;29;20029;-72
2021/05/11 14:29:44;;;;;;;4.57;1.05;;;14.60;99.90;;;;;;4909038;29;20111;-74
2021/05/11 14:32:11;;;;;;;4.45;1.98;;;14.70;99.90;;;;;;4908980;29;20029;-75
2021/05/11 14:34:37;;;;;;;1.33;1.10;;;14.60;99.90;;;;;;4909134;29;20115;-75
2021/05/11 14:37:03;;;;;;;1.92;1.23;;;14.60;99.90;;;;;;4907296;29;20063;-76
2021/05/11 14:39:29;;;;;;;3.50;1.85;;;14.60;99.90;;;;;;4923116;29;20084;-75
2021/05/11 14:41:55;;;;;;;3.75;1.55;;;14.60;99.90;;;;;;4907698;29;20040;-75
2021/05/11 14:44:21;;;;;;;3.15;1.00;;;14.60;99.90;;;;;;4918105;29;20025;-75
2021/05/11 14:46:48;;;;;;;3.47;1.42;;;14.70;99.90;;;;;;4910906;29;20052;-75
2021/05/11 14:49:14;;;;;;;8.25;1.95;;;14.70;99.90;;;;;;4917559;29;20111;-76
2021/05/11 14:51:40;;;;;;;6.53;1.88;;;14.70;99.90;;;;;;4912409;29;20565;-77
2021/05/11 14:54:09;;;;;;;1.67;1.02;;;14.80;99.90;;;;;;4927027;29;20052;-76
2021/05/11 14:56:39;;;;;;;7.03;1.70;;;14.80;99.90;;;;;;4911649;29;20041;-76
2021/05/11 14:59:09;;;;;;;2.65;1.30;;;14.80;99.90;;;;;;4912404;29;20032;-75
2021/05/11 15:01:38;;;;;;;3.10;1.38;;;14.80;99.90;;;;;;4912585;29;20040;-75
2021/05/11 15:04:04;;;;;;;3.00;1.75;;;14.80;99.90;;;;;;4910739;29;20044;-76
2021/05/11 15:06:30;;;;;;;3.28;1.95;;;14.70;99.90;;;;;;4911950;29;20029;-75
2021/05/11 15:08:57;;;;;;;2.97;1.60;;;14.80;99.90;;;;;;4910981;29;20040;-74
2021/05/11 15:11:23;;;;;;;3.15;1.73;;;14.70;99.90;;;;;;4912232;29;20020;-75
2021/05/11 15:13:50;;;;;;;5.53;1.95;;;14.80;99.90;;;;;;4926178;29;20072;-74
2021/05/11 15:16:22;;;;;;;3.67;2.42;;;14.90;99.90;;;;;;4912439;29;20032;-74
2021/05/11 15:18:49;;;;;;;4.72;2.17;;;14.70;99.90;;;;;;4911950;29;20039;-74
2021/05/11 15:21:15;;;;;;;3.63;2.25;;;14.70;99.90;;;;;;4911802;29;20029;-75
2021/05/11 15:23:41;;;;;;;4.38;1.83;;;14.80;99.90;;;;;;4910798;29;20024;-75
2021/05/11 15:26:09;;;;;;;2.88;1.67;;;14.80;99.90;;;;;;4912213;29;20032;-77
2021/05/11 15:28:36;;;;;;;3.40;1.83;;;14.70;99.90;;;;;;4911958;29;20032;-76
2021/05/11 15:31:03;;;;;;;1.90;1.17;;;14.70;99.90;;;;;;4910623;29;20033;-74
2021/05/11 15:33:29;;;;;;;2.58;1.38;;;14.70;99.90;;;;;;4912074;29;20520;-75
2021/05/11 15:35:55;;;;;;;1.25;1.08;;;14.60;99.90;;;;;;4920263;29;20032;-76
2021/05/11 15:38:21;;;;;;;1.70;1.25;;;14.60;99.90;;;;;;4926035;29;20449;-73
2021/05/11 15:40:47;;;;;;;1.75;1.10;;;14.60;99.90;;;;;;4911568;29;20032;-75
2021/05/11 15:43:13;;;;;;;3.17;1.15;;;14.50;99.90;;;;;;4911429;29;20047;-75
2021/05/11 15:45:39;;;;;;;1.65;1.02;;;14.50;99.90;;;;;;4912241;29;20052;-74
2021/05/11 15:51:00;;;;;;;2.58;1.83;;;14.50;99.90;;;;;;5102228;28;20421;-75
2021/05/11 15:53:26;;;;;;;2.40;1.60;;;14.50;99.90;;;;;;5091182;28;20032;-73
2021/05/11 15:55:51;;;;;;;2.17;1.23;;;14.50;99.90;;;;;;5090537;28;20027;-73
2021/05/11 15:58:18;;;;;;;4.43;1.27;;;14.50;99.90;;;;;;5079741;28;20025;-76
2021/05/11 16:00:49;;;;;;;6.20;2.17;;;14.50;99.90;;;;;;5081839;28;20055;-75
2021/05/11 16:03:16;;;;;;;3.75;1.25;;;14.50;99.90;;;;;;5081402;28;20036;-78
2021/05/11 16:05:42;;;;;;;2.72;1.52;;;14.50;99.90;;;;;;5080313;28;20033;-75
2021/05/11 16:08:10;;;;;;;3.08;1.42;;;14.50;99.90;;;;;;5079902;28;20035;-78
2021/05/11 16:10:37;;;;;;;2.47;1.60;;;14.60;99.90;;;;;;5079854;28;20040;-74
2021/05/11 16:13:03;;;;;;;1.63;0.80;;;14.60;99.90;;;;;;5081284;28;20080;-75
2021/05/11 16:15:30;;;;;;;1.92;0.95;;;14.60;99.90;;;;;;5081614;28;20024;-77
2021/05/11 16:17:56;;;;;;;4.43;1.33;;;14.70;99.90;;;;;;5079474;28;20033;-76
2021/05/11 16:20:22;;;;;;;3.05;1.05;;;14.60;99.90;;;;;;5081570;28;20045;-76
2021/05/11 16:22:48;;;;;;;2.85;1.30;;;14.60;99.90;;;;;;5080060;28;20025;-76
2021/05/11 16:25:14;;;;;;;3.35;1.23;;;14.70;99.90;;;;;;5081224;28;20055;-75
2021/05/11 16:27:42;;;;;;;2.17;1.00;;;14.70;99.90;;;;;;5080645;28;20473;-76
2021/05/11 16:30:14;;;;;;;2.58;1.13;;;14.80;99.90;;;;;;5081482;28;20223;-77
2021/05/11 16:32:40;;;;;;;1.77;1.25;;;14.70;99.90;;;;;;5081341;28;20028;-75
2021/05/11 16:35:08;;;;;;;5.50;1.25;;;14.70;99.90;;;;;;5081211;28;20057;-75
2021/05/11 16:37:34;;;;;;;2.80;1.45;;;14.70;99.90;;;;;;5080129;28;20020;-75
2021/05/11 16:40:01;;;;;;;1.65;1.25;;;14.70;99.90;;;;;;5080898;28;20492;-75
2021/05/11 16:42:26;;;;;;;6.85;1.42;;;14.60;99.90;;;;;;5081014;28;20025;-76
2021/05/11 16:44:52;;;;;;;1.80;1.17;;;14.50;99.90;;;;;;5080602;28;20043;-75
2021/05/11 16:47:18;;;;;;;2.90;1.40;;;14.40;99.90;;;;;;5080028;28;20116;-74
2021/05/11 16:49:43;;;;;;;2.65;1.63;;;14.40;99.90;;;;;;5080115;28;20057;-74
2021/05/11 16:52:09;;;;;;;3.13;1.80;;;14.40;99.90;;;;;;5080285;28;20029;-74
2021/05/11 16:54:35;;;;;;;5.30;1.50;;;14.40;99.90;;;;;;5080748;28;20044;-74
2021/05/11 16:57:01;;;;;;;7.57;2.28;;;14.30;99.90;;;;;;5078968;28;20059;-75
2021/05/11 16:59:26;;;;;;;6.80;1.85;;;14.30;99.90;;;;;;5080490;28;20028;-74
2021/05/11 17:01:52;;;;;;;3.45;1.65;;;14.40;99.90;;;;;;5069664;28;20029;-73
2021/05/11 17:04:18;;;;;;;2.45;1.55;;;14.40;99.90;;;;;;5076078;28;20029;-74
2021/05/11 17:06:44;;;;;;;1.98;1.60;;;14.40;99.90;;;;;;5084154;28;20039;-72
2021/05/11 17:09:10;;;;;;;13.65;1.52;;;14.30;99.90;;;;;;5067182;28;20047;-74
2021/05/11 17:11:38;;;;;;;2.50;1.27;;;14.30;99.90;;;;;;5066387;28;20017;-72